sensor_id;sensor_type;location;lat;lon;timestamp;pressure;altitude;pressure_sealevel;temperature;humidity
38939;BME280;24211;49.980;19.776;2024-02-21T00:00:33;100069.53;;;6.76;100.00
38939;BME280;24211;49.980;19.776;2024-02-21T00:03:20;100070.56;;;6.75;100.00
38939;BME280;24211;49.980;19.776;2024-02-21T00:06:00;100078.72;;;6.73;100.00
38939;BME280;24211;49.980;19.776;2024-02-21T00:08:27;100068.09;;;6.73;100.00
38939;BME280;24211;49.980;19.776;2024-02-21T00:10:55;100075.59;;;6.70;100.00
38939;BME280;24211;49.980;19.776;2024-02-21T00:13:22;100072.31;;;6.68;100.00
38939;BME280;24211;49.980;19.776;2024-02-21T00:15:54;100070.00;;;6.65;100.00
38939;BME280;24211;49.980;19.776;2024-02-21T00:18:29;100076.50;;;6.62;100.00
38939;BME280;24211;49.980;19.776;2024-02-21T00:21:10;100075.66;;;6.62;100.00
38939;BME280;24211;49.980;19.776;2024-02-21T00:23:44;100077.31;;;6.63;100.00
38939;BME280;24211;49.980;19.776;2024-02-21T00:26:14;100084.28;;;6.64;100.00
38939;BME280;24211;49.980;19.776;2024-02-21T00:28:42;100081.81;;;6.62;100.00
38939;BME280;24211;49.980;19.776;2024-02-21T00:31:10;100074.75;;;6.54;100.00
38939;BME280;24211;49.980;19.776;2024-02-21T00:33:37;100075.66;;;6.62;100.00
38939;BME280;24211;49.980;19.776;2024-02-21T00:36:17;100070.72;;;6.58;100.00
38939;BME280;24211;49.980;19.776;2024-02-21T00:38:44;100069.72;;;6.59;100.00
38939;BME280;24211;49.980;19.776;2024-02-21T00:41:50;100063.75;;;6.57;100.00
38939;BME280;24211;49.980;19.776;2024-02-21T00:44:20;100055.81;;;6.57;100.00
38939;BME280;24211;49.980;19.776;2024-02-21T00:46:48;100044.97;;;6.59;100.00
38939;BME280;24211;49.980;19.776;2024-02-21T00:49:30;100056.78;;;6.56;100.00
38939;BME280;24211;49.980;19.776;2024-02-21T00:52:01;100046.44;;;6.62;100.00
38939;BME280;24211;49.980;19.776;2024-02-21T00:55:07;100045.81;;;6.59;100.00
38939;BME280;24211;49.980;19.776;2024-02-21T00:57:40;100044.91;;;6.52;100.00
38939;BME280;24211;49.980;19.776;2024-02-21T01:00:41;100041.94;;;6.47;100.00
38939;BME280;24211;49.980;19.776;2024-02-21T01:03:24;100040.84;;;6.42;100.00
38939;BME280;24211;49.980;19.776;2024-02-21T01:05:52;100045.31;;;6.41;100.00
38939;BME280;24211;49.980;19.776;2024-02-21T01:08:19;100037.72;;;6.38;100.00
38939;BME280;24211;49.980;19.776;2024-02-21T01:10:50;100034.41;;;6.36;100.00
38939;BME280;24211;49.980;19.776;2024-02-21T01:13:18;100028.84;;;6.31;100.00
38939;BME280;24211;49.980;19.776;2024-02-21T01:15:45;100027.81;;;6.32;100.00
38939;BME280;24211;49.980;19.776;2024-02-21T01:18:13;100032.59;;;6.51;100.00
38939;BME280;24211;49.980;19.776;2024-02-21T01:21:04;100027.97;;;6.53;100.00
38939;BME280;24211;49.980;19.776;2024-02-21T01:23:35;100024.19;;;6.33;100.00
38939;BME280;24211;49.980;19.776;2024-02-21T01:26:07;100021.59;;;6.25;100.00
38939;BME280;24211;49.980;19.776;2024-02-21T01:28:35;100028.56;;;6.26;100.00
38939;BME280;24211;49.980;19.776;2024-02-21T01:31:03;100018.75;;;6.27;100.00
38939;BME280;24211;49.980;19.776;2024-02-21T01:33:55;100013.63;;;6.25;100.00
38939;BME280;24211;49.980;19.776;2024-02-21T01:36:24;100010.97;;;6.25;100.00
38939;BME280;24211;49.980;19.776;2024-02-21T01:39:29;100016.28;;;6.25;100.00
38939;BME280;24211;49.980;19.776;2024-02-21T01:42:05;100018.28;;;6.23;100.00
38939;BME280;24211;49.980;19.776;2024-02-21T01:44:33;100009.69;;;6.21;100.00
38939;BME280;24211;49.980;19.776;2024-02-21T01:47:01;99999.88;;;6.22;100.00
38939;BME280;24211;49.980;19.776;2024-02-21T01:49:28;99999.72;;;6.23;100.00
38939;BME280;24211;49.980;19.776;2024-02-21T01:51:56;100006.00;;;6.22;100.00
38939;BME280;24211;49.980;19.776;2024-02-21T01:54:29;100004.38;;;6.21;100.00
38939;BME280;24211;49.980;19.776;2024-02-21T01:56:58;99997.06;;;6.23;100.00
38939;BME280;24211;49.980;19.776;2024-02-21T01:59:27;99997.41;;;6.20;100.00
38939;BME280;24211;49.980;19.776;2024-02-21T02:02:24;100009.69;;;6.21;100.00
38939;BME280;24211;49.980;19.776;2024-02-21T02:04:52;100007.69;;;6.23;100.00
38939;BME280;24211;49.980;19.776;2024-02-21T02:07:19;100007.84;;;6.22;100.00
38939;BME280;24211;49.980;19.776;2024-02-21T02:09:49;99998.25;;;6.21;100.00
38939;BME280;24211;49.980;19.776;2024-02-21T02:12:17;99992.94;;;6.21;100.00
38939;BME280;24211;49.980;19.776;2024-02-21T02:14:44;99993.75;;;6.21;100.00
38939;BME280;24211;49.980;19.776;2024-02-21T02:17:11;99991.13;;;6.21;100.00
38939;BME280;24211;49.980;19.776;2024-02-21T02:19:38;99986.09;;;6.26;100.00
38939;BME280;24211;49.980;19.776;2024-02-21T02:22:29;99996.88;;;6.25;100.00
38939;BME280;24211;49.980;19.776;2024-02-21T02:25:03;99990.38;;;6.27;100.00
38939;BME280;24211;49.980;19.776;2024-02-21T02:27:53;99988.91;;;6.25;100.00
38939;BME280;24211;49.980;19.776;2024-02-21T02:30:26;99980.31;;;6.23;100.00
38939;BME280;24211;49.980;19.776;2024-02-21T02:33:08;99973.81;;;6.25;100.00
38939;BME280;24211;49.980;19.776;2024-02-21T02:35:41;99981.13;;;6.23;100.00
38939;BME280;24211;49.980;19.776;2024-02-21T02:38:10;99975.34;;;6.20;100.00
38939;BME280;24211;49.980;19.776;2024-02-21T02:40:39;99968.56;;;6.17;100.00
38939;BME280;24211;49.980;19.776;2024-02-21T02:43:10;99971.22;;;6.17;100.00
38939;BME280;24211;49.980;19.776;2024-02-21T02:45:37;99970.59;;;6.15;100.00
38939;BME280;24211;49.980;19.776;2024-02-21T02:48:05;99971.59;;;6.14;100.00
38939;BME280;24211;49.980;19.776;2024-02-21T02:50:36;99972.41;;;6.15;100.00
38939;BME280;24211;49.980;19.776;2024-02-21T02:53:03;99980.22;;;6.16;100.00
38939;BME280;24211;49.980;19.776;2024-02-21T02:55:30;99965.91;;;6.17;100.00
38939;BME280;24211;49.980;19.776;2024-02-21T02:57:58;99970.59;;;6.15;100.00
38939;BME280;24211;49.980;19.776;2024-02-21T03:00:43;99968.56;;;6.17;100.00
38939;BME280;24211;49.980;19.776;2024-02-21T03:03:11;99966.75;;;6.18;100.00
38939;BME280;24211;49.980;19.776;2024-02-21T03:05:42;99962.28;;;6.18;100.00
38939;BME280;24211;49.980;19.776;2024-02-21T03:08:17;99964.28;;;6.16;100.00
38939;BME280;24211;49.980;19.776;2024-02-21T03:10:47;99958.16;;;6.16;100.00
38939;BME280;24211;49.980;19.776;2024-02-21T03:13:15;99959.97;;;6.15;100.00
38939;BME280;24211;49.980;19.776;2024-02-21T03:15:42;99961.63;;;6.16;100.00
38939;BME280;24211;49.980;19.776;2024-02-21T03:18:22;99957.31;;;6.15;100.00
38939;BME280;24211;49.980;19.776;2024-02-21T03:20:49;99961.78;;;6.15;100.00
38939;BME280;24211;49.980;19.776;2024-02-21T03:23:37;99955.69;;;6.14;100.00
38939;BME280;24211;49.980;19.776;2024-02-21T03:26:05;99963.81;;;6.13;100.00
38939;BME280;24211;49.980;19.776;2024-02-21T03:28:43;99970.13;;;6.12;100.00
38939;BME280;24211;49.980;19.776;2024-02-21T03:31:13;99958.84;;;6.10;100.00
38939;BME280;24211;49.980;19.776;2024-02-21T03:34:05;99975.25;;;6.13;100.00
38939;BME280;24211;49.980;19.776;2024-02-21T03:36:33;99964.66;;;6.13;100.00
38939;BME280;24211;49.980;19.776;2024-02-21T03:39:04;99966.00;;;6.09;100.00
38939;BME280;24211;49.980;19.776;2024-02-21T03:41:32;99962.34;;;6.10;100.00
38939;BME280;24211;49.980;19.776;2024-02-21T03:44:00;99965.00;;;6.10;100.00
38939;BME280;24211;49.980;19.776;2024-02-21T03:46:53;99972.31;;;6.08;100.00
38939;BME280;24211;49.980;19.776;2024-02-21T03:49:29;99962.34;;;6.10;100.00
38939;BME280;24211;49.980;19.776;2024-02-21T03:52:21;99966.81;;;6.10;100.00
38939;BME280;24211;49.980;19.776;2024-02-21T03:54:50;99969.31;;;6.11;100.00
38939;BME280;24211;49.980;19.776;2024-02-21T03:57:22;99965.00;;;6.10;100.00
38939;BME280;24211;49.980;19.776;2024-02-21T04:00:00;99965.00;;;6.10;100.00
38939;BME280;24211;49.980;19.776;2024-02-21T04:02:53;99959.69;;;6.10;100.00
38939;BME280;24211;49.980;19.776;2024-02-21T04:05:21;99961.34;;;6.11;100.00
38939;BME280;24211;49.980;19.776;2024-02-21T04:07:48;99949.06;;;6.10;100.00
38939;BME280;24211;49.980;19.776;2024-02-21T04:11:02;99954.09;;;6.05;100.00
38939;BME280;24211;49.980;19.776;2024-02-21T04:13:31;99946.13;;;6.05;100.00
38939;BME280;24211;49.980;19.776;2024-02-21T04:15:58;99938.19;;;6.05;100.00
38939;BME280;24211;49.980;19.776;2024-02-21T04:18:25;99937.19;;;6.06;100.00
38939;BME280;24211;49.980;19.776;2024-02-21T04:20:53;99939.19;;;6.04;100.00
38939;BME280;24211;49.980;19.776;2024-02-21T04:23:23;99939.56;;;6.01;100.00
38939;BME280;24211;49.980;19.776;2024-02-21T04:26:00;99936.25;;;5.99;100.00
38939;BME280;24211;49.980;19.776;2024-02-21T04:28:27;99932.59;;;6.00;100.00
38939;BME280;24211;49.980;19.776;2024-02-21T04:30:55;99937.53;;;6.03;100.00
38939;BME280;24211;49.980;19.776;2024-02-21T04:33:56;99942.84;;;6.03;100.00
38939;BME280;24211;49.980;19.776;2024-02-21T04:40:32;99939.19;;;6.04;100.00
38939;BME280;24211;49.980;19.776;2024-02-21T04:43:00;99934.53;;;6.06;100.00
38939;BME280;24211;49.980;19.776;2024-02-21T04:45:33;99924.91;;;6.05;100.00
38939;BME280;24211;49.980;19.776;2024-02-21T04:48:00;99922.44;;;6.04;100.00
38939;BME280;24211;49.980;19.776;2024-02-21T04:50:47;99911.84;;;6.04;100.00
38939;BME280;24211;49.980;19.776;2024-02-21T04:53:25;99925.25;;;6.02;100.00
38939;BME280;24211;49.980;19.776;2024-02-21T04:55:53;99926.28;;;6.01;100.00
38939;BME280;24211;49.980;19.776;2024-02-21T04:58:20;99928.94;;;6.01;100.00
38939;BME280;24211;49.980;19.776;2024-02-21T05:00:47;99934.25;;;6.01;100.00
38939;BME280;24211;49.980;19.776;2024-02-21T05:03:15;99932.59;;;6.00;100.00
38939;BME280;24211;49.980;19.776;2024-02-21T05:05:44;99933.41;;;6.01;100.00
38939;BME280;24211;49.980;19.776;2024-02-21T05:08:11;99935.88;;;6.02;100.00
38939;BME280;24211;49.980;19.776;2024-02-21T05:10:40;99923.63;;;6.01;100.00
38939;BME280;24211;49.980;19.776;2024-02-21T05:13:58;99936.53;;;6.04;100.00
38939;BME280;24211;49.980;19.776;2024-02-21T05:16:40;99928.59;;;6.04;100.00
38939;BME280;24211;49.980;19.776;2024-02-21T05:19:08;99931.25;;;6.04;100.00
38939;BME280;24211;49.980;19.776;2024-02-21T05:21:36;99926.91;;;6.03;100.00
38939;BME280;24211;49.980;19.776;2024-02-21T05:24:29;99930.56;;;6.02;100.00
38939;BME280;24211;49.980;19.776;2024-02-21T05:26:56;99925.09;;;6.04;100.00
38939;BME280;24211;49.980;19.776;2024-02-21T05:29:24;99920.63;;;6.04;100.00
38939;BME280;24211;49.980;19.776;2024-02-21T05:34:19;99923.63;;;6.01;100.00
38939;BME280;24211;49.980;19.776;2024-02-21T05:37:12;99925.25;;;6.02;100.00
38939;BME280;24211;49.980;19.776;2024-02-21T05:40:07;99925.25;;;6.02;100.00
38939;BME280;24211;49.980;19.776;2024-02-21T05:42:34;99923.63;;;6.01;100.00
38939;BME280;24211;49.980;19.776;2024-02-21T05:45:02;99919.97;;;6.02;100.00
38939;BME280;24211;49.980;19.776;2024-02-21T05:47:30;99918.59;;;6.06;100.00
38939;BME280;24211;49.980;19.776;2024-02-21T05:50:02;99917.97;;;6.04;100.00
38939;BME280;24211;49.980;19.776;2024-02-21T05:52:51;99910.28;;;6.09;100.00
38939;BME280;24211;49.980;19.776;2024-02-21T05:55:18;99905.00;;;6.09;100.00
38939;BME280;24211;49.980;19.776;2024-02-21T05:57:48;99910.66;;;6.06;100.00
38939;BME280;24211;49.980;19.776;2024-02-21T06:00:19;99907.34;;;6.04;100.00
38939;BME280;24211;49.980;19.776;2024-02-21T06:02:48;99909.34;;;6.02;100.00
38939;BME280;24211;49.980;19.776;2024-02-21T06:05:15;99916.31;;;6.03;100.00
38939;BME280;24211;49.980;19.776;2024-02-21T06:07:57;99912.00;;;6.02;100.00
38939;BME280;24211;49.980;19.776;2024-02-21T06:10:25;99908.16;;;6.05;100.00
38939;BME280;24211;49.980;19.776;2024-02-21T06:12:52;99901.22;;;6.04;100.00
38939;BME280;24211;49.980;19.776;2024-02-21T06:15:20;99902.69;;;6.06;100.00
38939;BME280;24211;49.980;19.776;2024-02-21T06:17:47;99897.19;;;6.08;100.00
38939;BME280;24211;49.980;19.776;2024-02-21T06:20:16;99911.28;;;6.08;100.00
38939;BME280;24211;49.980;19.776;2024-02-21T06:22:43;99904.16;;;6.09;100.00
38939;BME280;24211;49.980;19.776;2024-02-21T06:25:21;99899.69;;;6.09;100.00
38939;BME280;24211;49.980;19.776;2024-02-21T06:27:48;99904.78;;;6.11;100.00
38939;BME280;24211;49.980;19.776;2024-02-21T06:30:16;99899.28;;;6.12;100.00
38939;BME280;24211;49.980;19.776;2024-02-21T06:32:52;99900.59;;;6.16;100.00
38939;BME280;24211;49.980;19.776;2024-02-21T06:35:32;99903.13;;;6.24;100.00
38939;BME280;24211;49.980;19.776;2024-02-21T06:37:59;99896.13;;;6.31;100.00
38939;BME280;24211;49.980;19.776;2024-02-21T06:40:26;99903.34;;;6.37;100.00
38939;BME280;24211;49.980;19.776;2024-02-21T06:42:54;99900.13;;;6.42;100.00
38939;BME280;24211;49.980;19.776;2024-02-21T06:45:25;99898.50;;;6.41;100.00
38939;BME280;24211;49.980;19.776;2024-02-21T06:48:03;99913.59;;;6.40;100.00
38939;BME280;24211;49.980;19.776;2024-02-21T06:50:36;99913.25;;;6.43;100.00
38939;BME280;24211;49.980;19.776;2024-02-21T06:53:04;99910.75;;;6.42;100.00
38939;BME280;24211;49.980;19.776;2024-02-21T06:56:11;99902.22;;;6.46;100.00
38939;BME280;24211;49.980;19.776;2024-02-21T06:59:03;99896.56;;;6.49;100.00
38939;BME280;24211;49.980;19.776;2024-02-21T07:01:56;99900.50;;;6.53;100.00
38939;BME280;24211;49.980;19.776;2024-02-21T07:04:27;99893.06;;;6.64;100.00
38939;BME280;24211;49.980;19.776;2024-02-21T07:07:54;99891.19;;;6.79;100.00
38939;BME280;24211;49.980;19.776;2024-02-21T07:10:50;99901.72;;;6.87;100.00
38939;BME280;24211;49.980;19.776;2024-02-21T07:13:44;99910.97;;;6.91;100.00
38939;BME280;24211;49.980;19.776;2024-02-21T07:16:37;99894.28;;;6.97;100.00
38939;BME280;24211;49.980;19.776;2024-02-21T07:19:04;99904.16;;;7.03;100.00
38939;BME280;24211;49.980;19.776;2024-02-21T07:21:32;99890.75;;;7.11;100.00
38939;BME280;24211;49.980;19.776;2024-02-21T07:24:25;99889.63;;;7.20;100.00
38939;BME280;24211;49.980;19.776;2024-02-21T07:27:45;99895.84;;;7.27;100.00
38939;BME280;24211;49.980;19.776;2024-02-21T07:30:38;99897.09;;;7.31;100.00
38939;BME280;24211;49.980;19.776;2024-02-21T07:33:05;99893.66;;;7.37;100.00
38939;BME280;24211;49.980;19.776;2024-02-21T07:35:49;99892.41;;;7.54;100.00
38939;BME280;24211;49.980;19.776;2024-02-21T07:38:16;99889.25;;;7.65;100.00
38939;BME280;24211;49.980;19.776;2024-02-21T07:40:59;99875.97;;;7.72;100.00
38939;BME280;24211;49.980;19.776;2024-02-21T07:43:26;99875.66;;;7.81;100.00
38939;BME280;24211;49.980;19.776;2024-02-21T07:45:53;99876.53;;;7.88;100.00
38939;BME280;24211;49.980;19.776;2024-02-21T07:49:11;99868.59;;;7.95;100.00
38939;BME280;24211;49.980;19.776;2024-02-21T07:52:01;99864.16;;;8.09;100.00
38939;BME280;24211;49.980;19.776;2024-02-21T07:54:37;99861.81;;;8.20;100.00
38939;BME280;24211;49.980;19.776;2024-02-21T07:57:05;99864.75;;;8.32;100.00
38939;BME280;24211;49.980;19.776;2024-02-21T07:59:32;99866.22;;;8.41;100.00
38939;BME280;24211;49.980;19.776;2024-02-21T08:01:59;99858.53;;;8.52;100.00
38939;BME280;24211;49.980;19.776;2024-02-21T08:04:27;99860.81;;;8.62;100.00
38939;BME280;24211;49.980;19.776;2024-02-21T08:07:04;99856.94;;;8.71;100.00
38939;BME280;24211;49.980;19.776;2024-02-21T08:09:31;99849.56;;;8.73;100.00
38939;BME280;24211;49.980;19.776;2024-02-21T08:12:15;99853.09;;;8.80;100.00
38939;BME280;24211;49.980;19.776;2024-02-21T08:14:43;99855.34;;;8.83;100.00
38939;BME280;24211;49.980;19.776;2024-02-21T08:17:40;99851.84;;;8.83;100.00
38939;BME280;24211;49.980;19.776;2024-02-21T08:20:10;99852.69;;;8.90;100.00
38939;BME280;24211;49.980;19.776;2024-02-21T08:23:04;99845.59;;;9.23;100.00
38939;BME280;24211;49.980;19.776;2024-02-21T08:25:31;99837.63;;;9.43;100.00
38939;BME280;24211;49.980;19.776;2024-02-21T08:27:59;99837.56;;;10.08;100.00
38939;BME280;24211;49.980;19.776;2024-02-21T08:30:27;99836.34;;;10.24;100.00
38939;BME280;24211;49.980;19.776;2024-02-21T08:32:54;99844.53;;;10.35;100.00
38939;BME280;24211;49.980;19.776;2024-02-21T08:35:22;99833.16;;;10.97;100.00
38939;BME280;24211;49.980;19.776;2024-02-21T08:38:15;99828.75;;;10.72;100.00
38939;BME280;24211;49.980;19.776;2024-02-21T08:40:42;99830.81;;;10.12;100.00
38939;BME280;24211;49.980;19.776;2024-02-21T08:43:13;99834.94;;;9.82;100.00
38939;BME280;24211;49.980;19.776;2024-02-21T08:45:41;99831.88;;;9.59;100.00
38939;BME280;24211;49.980;19.776;2024-02-21T08:48:08;99819.56;;;9.45;100.00
38939;BME280;24211;49.980;19.776;2024-02-21T08:50:36;99812.56;;;9.76;100.00
38939;BME280;24211;49.980;19.776;2024-02-21T08:53:03;99809.31;;;9.68;100.00
38939;BME280;24211;49.980;19.776;2024-02-21T08:55:32;99806.84;;;9.60;100.00
38939;BME280;24211;49.980;19.776;2024-02-21T08:58:25;99800.88;;;9.71;100.00
38939;BME280;24211;49.980;19.776;2024-02-21T09:00:54;99789.56;;;9.75;100.00
38939;BME280;24211;49.980;19.776;2024-02-21T09:03:22;99799.00;;;9.78;100.00
38939;BME280;24211;49.980;19.776;2024-02-21T09:05:55;99794.91;;;9.82;100.00
38939;BME280;24211;49.980;19.776;2024-02-21T09:08:33;99794.91;;;9.82;100.00
38939;BME280;24211;49.980;19.776;2024-02-21T09:12:27;99795.75;;;9.82;100.00
38939;BME280;24211;49.980;19.776;2024-02-21T09:14:55;99795.69;;;10.02;100.00
38939;BME280;24211;49.980;19.776;2024-02-21T09:17:22;99800.63;;;10.12;100.00
38939;BME280;24211;49.980;19.776;2024-02-21T09:19:56;99803.47;;;10.23;100.00
38939;BME280;24211;49.980;19.776;2024-02-21T09:22:27;99799.31;;;10.27;100.00
38939;BME280;24211;49.980;19.776;2024-02-21T09:25:02;99807.97;;;10.29;100.00
38939;BME280;24211;49.980;19.776;2024-02-21T09:27:55;99801.34;;;10.38;100.00
38939;BME280;24211;49.980;19.776;2024-02-21T09:30:29;99805.06;;;10.37;100.00
38939;BME280;24211;49.980;19.776;2024-02-21T09:33:02;99812.00;;;10.45;100.00
38939;BME280;24211;49.980;19.776;2024-02-21T09:35:39;99804.56;;;10.60;100.00
38939;BME280;24211;49.980;19.776;2024-02-21T09:38:16;99803.44;;;10.74;100.00
38939;BME280;24211;49.980;19.776;2024-02-21T09:40:43;99805.75;;;10.71;100.00
38939;BME280;24211;49.980;19.776;2024-02-21T09:43:11;99800.75;;;10.81;100.00
38939;BME280;24211;49.980;19.776;2024-02-21T09:45:45;99800.22;;;10.97;100.00
38939;BME280;24211;49.980;19.776;2024-02-21T09:49:13;99795.22;;;11.07;100.00
38939;BME280;24211;49.980;19.776;2024-02-21T09:52:04;99806.09;;;11.12;100.00
38939;BME280;24211;49.980;19.776;2024-02-21T09:54:36;99807.69;;;11.20;100.00
38939;BME280;24211;49.980;19.776;2024-02-21T09:57:04;99795.75;;;11.22;100.00
38939;BME280;24211;49.980;19.776;2024-02-21T09:59:43;99801.69;;;11.24;100.00
38939;BME280;24211;49.980;19.776;2024-02-21T10:02:15;99794.69;;;11.23;100.00
38939;BME280;24211;49.980;19.776;2024-02-21T10:05:02;99795.94;;;11.21;100.00
38939;BME280;24211;49.980;19.776;2024-02-21T10:07:54;99786.06;;;11.21;100.00
38939;BME280;24211;49.980;19.776;2024-02-21T10:10:22;99782.75;;;11.26;100.00
38939;BME280;24211;49.980;19.776;2024-02-21T10:13:01;99774.69;;;11.32;100.00
38939;BME280;24211;49.980;19.776;2024-02-21T10:15:41;99769.88;;;11.41;100.00
38939;BME280;24211;49.980;19.776;2024-02-21T10:18:09;99760.75;;;11.48;100.00
38939;BME280;24211;49.980;19.776;2024-02-21T10:20:40;99758.63;;;11.57;100.00
38939;BME280;24211;49.980;19.776;2024-02-21T10:23:11;99751.53;;;11.62;100.00
38939;BME280;24211;49.980;19.776;2024-02-21T10:25:38;99760.38;;;11.69;100.00
38939;BME280;24211;49.980;19.776;2024-02-21T10:28:16;99758.38;;;11.83;100.00
38939;BME280;24211;49.980;19.776;2024-02-21T10:30:55;99752.22;;;12.01;100.00
38939;BME280;24211;49.980;19.776;2024-02-21T10:33:39;99749.38;;;12.14;100.00
38939;BME280;24211;49.980;19.776;2024-02-21T10:36:10;99749.94;;;12.34;100.00
38939;BME280;24211;49.980;19.776;2024-02-21T10:38:39;99733.56;;;12.42;100.00
38939;BME280;24211;49.980;19.776;2024-02-21T10:41:06;99732.00;;;12.53;100.00
38939;BME280;24211;49.980;19.776;2024-02-21T10:43:40;99721.00;;;12.72;100.00
38939;BME280;24211;49.980;19.776;2024-02-21T10:46:09;99722.22;;;12.99;100.00
38939;BME280;24211;49.980;19.776;2024-02-21T10:49:16;99727.66;;;13.23;100.00
38939;BME280;24211;49.980;19.776;2024-02-21T10:51:49;99721.75;;;13.44;100.00
38939;BME280;24211;49.980;19.776;2024-02-21T10:54:45;99717.28;;;13.49;100.00
38939;BME280;24211;49.980;19.776;2024-02-21T10:57:20;99718.22;;;13.66;100.00
38939;BME280;24211;49.980;19.776;2024-02-21T10:59:55;99714.84;;;13.48;100.00
38939;BME280;24211;49.980;19.776;2024-02-21T11:02:27;99718.56;;;13.47;100.00
38939;BME280;24211;49.980;19.776;2024-02-21T11:05:00;99706.06;;;13.52;100.00
38939;BME280;24211;49.980;19.776;2024-02-21T11:07:31;99702.94;;;13.55;100.00
38939;BME280;24211;49.980;19.776;2024-02-21T11:10:02;99693.81;;;13.56;100.00
38939;BME280;24211;49.980;19.776;2024-02-21T11:12:34;99696.28;;;13.58;100.00
38939;BME280;24211;49.980;19.776;2024-02-21T11:15:29;99692.41;;;13.65;100.00
38939;BME280;24211;49.980;19.776;2024-02-21T11:18:03;99695.09;;;13.65;100.00
38939;BME280;24211;49.980;19.776;2024-02-21T11:20:37;99696.38;;;13.63;100.00
38939;BME280;24211;49.980;19.776;2024-02-21T11:23:05;99696.84;;;13.60;100.00
38939;BME280;24211;49.980;19.776;2024-02-21T11:25:33;99692.41;;;13.54;100.00
38939;BME280;24211;49.980;19.776;2024-02-21T11:28:04;99678.91;;;13.49;100.00
38939;BME280;24211;49.980;19.776;2024-02-21T11:30:39;99680.06;;;13.53;100.00
38939;BME280;24211;49.980;19.776;2024-02-21T11:33:12;99670.13;;;13.53;100.00
38939;BME280;24211;49.980;19.776;2024-02-21T11:35:54;99680.16;;;13.58;100.00
38939;BME280;24211;49.980;19.776;2024-02-21T11:38:27;99674.53;;;13.59;100.00
38939;BME280;24211;49.980;19.776;2024-02-21T11:41:08;99668.25;;;13.65;100.00
38939;BME280;24211;49.980;19.776;2024-02-21T11:43:38;99665.31;;;13.67;100.00
38939;BME280;24211;49.980;19.776;2024-02-21T11:46:06;99665.09;;;13.68;100.00
38939;BME280;24211;49.980;19.776;2024-02-21T11:48:34;99662.97;;;13.59;100.00
38939;BME280;24211;49.980;19.776;2024-02-21T11:51:02;99660.44;;;13.41;100.00
38939;BME280;24211;49.980;19.776;2024-02-21T11:53:30;99650.16;;;13.38;100.00
38939;BME280;24211;49.980;19.776;2024-02-21T11:56:02;99650.88;;;13.22;100.00
38939;BME280;24211;49.980;19.776;2024-02-21T11:58:31;99648.84;;;13.05;100.00
38939;BME280;24211;49.980;19.776;2024-02-21T12:00:58;99647.56;;;12.96;100.00
38939;BME280;24211;49.980;19.776;2024-02-21T12:03:26;99655.50;;;12.91;100.00
38939;BME280;24211;49.980;19.776;2024-02-21T12:05:55;99647.19;;;12.81;100.00
38939;BME280;24211;49.980;19.776;2024-02-21T12:08:24;99639.84;;;12.65;100.00
38939;BME280;24211;49.980;19.776;2024-02-21T12:10:52;99642.38;;;12.60;100.00
38939;BME280;24211;49.980;19.776;2024-02-21T12:13:23;99633.84;;;12.52;100.00
38939;BME280;24211;49.980;19.776;2024-02-21T12:15:50;99641.19;;;12.56;100.00
38939;BME280;24211;49.980;19.776;2024-02-21T12:18:17;99640.03;;;12.52;100.00
38939;BME280;24211;49.980;19.776;2024-02-21T12:20:48;99628.72;;;12.50;100.00
38939;BME280;24211;49.980;19.776;2024-02-21T12:23:18;99624.84;;;12.46;100.00
38939;BME280;24211;49.980;19.776;2024-02-21T12:25:45;99633.13;;;12.44;100.00
38939;BME280;24211;49.980;19.776;2024-02-21T12:28:12;99629.88;;;12.54;100.00
38939;BME280;24211;49.980;19.776;2024-02-21T12:30:40;99630.00;;;12.59;100.00
38939;BME280;24211;49.980;19.776;2024-02-21T12:33:12;99629.75;;;12.49;100.00
38939;BME280;24211;49.980;19.776;2024-02-21T12:35:49;99622.41;;;12.44;100.00
38939;BME280;24211;49.980;19.776;2024-02-21T12:38:16;99628.13;;;12.48;100.00
38939;BME280;24211;49.980;19.776;2024-02-21T12:40:45;99624.84;;;12.46;100.00
38939;BME280;24211;49.980;19.776;2024-02-21T12:43:12;99629.75;;;12.49;100.00
38939;BME280;24211;49.980;19.776;2024-02-21T12:45:42;99624.84;;;12.46;100.00
38939;BME280;24211;49.980;19.776;2024-02-21T12:48:10;99621.81;;;12.42;100.00
38939;BME280;24211;49.980;19.776;2024-02-21T12:50:37;99614.69;;;12.36;100.00
38939;BME280;24211;49.980;19.776;2024-02-21T12:53:06;99616.06;;;12.27;100.00
38939;BME280;24211;49.980;19.776;2024-02-21T12:55:47;99617.22;;;12.31;100.00
38939;BME280;24211;49.980;19.776;2024-02-21T12:58:15;99620.72;;;12.32;100.00
38939;BME280;24211;49.980;19.776;2024-02-21T13:00:43;99613.84;;;12.36;100.00
38939;BME280;24211;49.980;19.776;2024-02-21T13:03:10;99613.84;;;12.36;100.00
38939;BME280;24211;49.980;19.776;2024-02-21T13:05:38;99601.84;;;12.27;100.00
38939;BME280;24211;49.980;19.776;2024-02-21T13:08:06;99600.53;;;12.18;100.00
38939;BME280;24211;49.980;19.776;2024-02-21T13:10:34;99601.66;;;12.10;100.00
38939;BME280;24211;49.980;19.776;2024-02-21T13:13:02;99601.91;;;12.09;100.00
38939;BME280;24211;49.980;19.776;2024-02-21T13:15:29;99605.16;;;12.11;100.00
38939;BME280;24211;49.980;19.776;2024-02-21T13:17:57;99603.91;;;12.13;100.00
38939;BME280;24211;49.980;19.776;2024-02-21T13:20:28;99600.00;;;11.98;100.00
38939;BME280;24211;49.980;19.776;2024-02-21T13:22:56;99598.09;;;11.87;100.00
38939;BME280;24211;49.980;19.776;2024-02-21T13:25:23;99602.91;;;11.78;100.00
38939;BME280;24211;49.980;19.776;2024-02-21T13:27:50;99595.44;;;11.68;100.00
38939;BME280;24211;49.980;19.776;2024-02-21T13:30:18;99598.75;;;11.64;100.00